Time;durP1;ratioP1;P1;durP2;ratioP2;P2;SDS_P1;SDS_P2;PMS_P1;PMS_P2;Temp;Humidity;BMP_temperature;BMP_pressure;BME280_temperature;BME280_humidity;BME280_pressure;Samples;Min_cycle;Max_cycle;Signal;HPM_P1;HPM_P2
2021/06/18 00:01:09;;;;;;;15.60;12.43;;;;;22.30;100821.00;;;;10462693;28;20245;-77
2021/06/18 00:06:11;;;;;;;14.07;12.50;;;;;22.20;100818.00;;;;10498290;28;20213;-77
2021/06/18 00:11:13;;;;;;;15.05;13.50;;;;;22.00;100813.00;;;;10491448;28;20193;-78
2021/06/18 00:16:15;;;;;;;15.43;13.63;;;;;22.00;100821.00;;;;10480792;28;20198;-77
2021/06/18 00:21:17;;;;;;;14.52;12.75;;;;;22.00;100832.00;;;;10484464;28;20208;-79
2021/06/18 00:26:19;;;;;;;17.13;13.25;;;;;22.10;100830.00;;;;10489626;28;20203;-77
2021/06/18 00:31:21;;;;;;;14.55;13.18;;;;;22.10;100826.00;;;;10494226;28;20189;-76
2021/06/18 00:36:23;;;;;;;15.25;13.75;;;;;22.10;100827.00;;;;10513672;28;20388;-77
2021/06/18 00:41:25;;;;;;;15.18;12.82;;;;;22.10;100843.00;;;;10492659;28;20561;-77
2021/06/18 00:46:27;;;;;;;17.10;14.25;;;;;22.10;100849.00;;;;10464016;28;20284;-77
2021/06/18 00:51:29;;;;;;;17.30;14.90;;;;;22.10;100825.00;;;;10534961;28;20213;-77
2021/06/18 00:56:33;;;;;;;14.77;13.27;;;;;22.10;100812.00;;;;10489623;28;20210;-77
2021/06/18 01:01:34;;;;;;;16.42;13.07;;;;;22.10;100829.00;;;;10474148;28;20244;-77
2021/06/18 01:06:39;;;;;;;15.00;13.40;;;;;22.10;100824.00;;;;10492195;28;20640;-77
2021/06/18 01:11:50;;;;;;;13.70;12.27;;;;;22.00;100825.00;;;;10488686;28;20644;-78
2021/06/18 01:16:59;;;;;;;14.93;12.60;;;;;21.90;100817.00;;;;10476780;28;20186;-78
2021/06/18 01:22:05;;;;;;;13.30;11.93;;;;;21.80;100798.00;;;;10479422;28;20216;-77
2021/06/18 01:27:39;;;;;;;14.45;12.68;;;;;21.50;100803.00;;;;10511670;28;20655;-77
2021/06/18 01:32:52;;;;;;;21.25;13.23;;;;;21.30;100806.00;;;;10500765;28;20200;-79
2021/06/18 01:37:57;;;;;;;15.55;13.60;;;;;21.10;100827.00;;;;10492252;28;20564;-79
2021/06/18 01:43:02;;;;;;;16.23;14.63;;;;;20.80;100816.00;;;;10477820;28;20688;-78
2021/06/18 01:48:05;;;;;;;16.75;14.90;;;;;20.70;100832.00;;;;10476913;28;20201;-79
2021/06/18 01:53:18;;;;;;;17.05;15.27;;;;;20.60;100820.00;;;;10506765;28;20640;-79
2021/06/18 01:58:21;;;;;;;17.27;15.07;;;;;20.50;100844.00;;;;10489883;28;20190;-79
2021/06/18 02:03:29;;;;;;;31.73;19.88;;;;;20.40;100862.00;;;;10484119;28;20213;-81
2021/06/18 02:08:31;;;;;;;28.23;23.80;;;;;20.30;100935.00;;;;10490732;28;20189;-78
2021/06/18 02:13:34;;;;;;;49.15;40.70;;;;;20.20;100887.00;;;;10503756;28;20185;-78
2021/06/18 02:18:37;;;;;;;37.67;33.70;;;;;20.00;100772.00;;;;10534080;28;20185;-79
2021/06/18 02:23:39;;;;;;;46.45;41.60;;;;;19.90;100830.00;;;;10483583;28;20213;-79
2021/06/18 02:28:42;;;;;;;44.80;40.10;;;;;19.80;100837.00;;;;10540428;28;20644;-78
2021/06/18 02:33:44;;;;;;;48.47;40.78;;;;;19.80;100834.00;;;;10515655;28;20551;-78
2021/06/18 02:38:47;;;;;;;45.30;40.70;;;;;19.70;100827.00;;;;10504145;28;20193;-78
2021/06/18 02:43:49;;;;;;;44.22;39.55;;;;;19.60;100819.00;;;;10503257;28;20196;-78
2021/06/18 02:48:59;;;;;;;48.60;42.40;;;;;19.60;100798.00;;;;10513636;28;20192;-78
2021/06/18 02:54:18;;;;;;;43.15;38.13;;;;;19.60;100795.00;;;;10476690;28;20217;-78
2021/06/18 02:59:41;;;;;;;44.28;39.40;;;;;19.60;100770.00;;;;10478931;28;20667;-78
2021/06/18 03:04:45;;;;;;;41.35;36.97;;;;;19.60;100752.00;;;;10530069;28;20192;-78
2021/06/18 03:09:54;;;;;;;41.08;35.60;;;;;19.60;100748.00;;;;10491669;28;20193;-78
2021/06/18 03:15:02;;;;;;;37.35;33.40;;;;;19.60;100743.00;;;;10503483;28;20182;-78
2021/06/18 03:20:09;;;;;;;37.42;33.42;;;;;19.60;100769.00;;;;10465763;28;20250;-77
2021/06/18 03:25:13;;;;;;;39.55;35.33;;;;;19.50;100769.00;;;;10470934;28;20189;-78
2021/06/18 03:30:15;;;;;;;40.22;35.88;;;;;19.50;100773.00;;;;10506086;28;20776;-78
2021/06/18 03:35:19;;;;;;;40.67;36.58;;;;;19.50;100775.00;;;;10497320;28;20267;-77
2021/06/18 03:40:22;;;;;;;41.30;37.17;;;;;19.50;100793.00;;;;10505860;28;20205;-78
2021/06/18 03:45:25;;;;;;;41.90;37.55;;;;;19.50;100785.00;;;;10494805;28;20181;-77
2021/06/18 03:50:29;;;;;;;42.65;37.97;;;;;19.40;100774.00;;;;10481699;28;20671;-78
2021/06/18 03:55:31;;;;;;;43.25;38.75;;;;;19.40;100759.00;;;;10487428;28;20196;-77
2021/06/18 04:00:36;;;;;;;45.75;39.95;;;;;19.40;100766.00;;;;10494016;28;20212;-78
2021/06/18 04:05:39;;;;;;;47.85;41.05;;;;;19.40;100764.00;;;;10478611;28;20197;-78
2021/06/18 04:10:44;;;;;;;48.15;43.05;;;;;19.40;100754.00;;;;10486712;28;20223;-77
2021/06/18 04:15:47;;;;;;;49.50;42.60;;;;;19.40;100747.00;;;;10491935;28;20208;-78
2021/06/18 04:20:50;;;;;;;48.97;43.63;;;;;19.40;100742.00;;;;10504163;28;20666;-77
2021/06/18 04:25:52;;;;;;;49.70;43.05;;;;;19.40;100735.00;;;;10503318;28;20203;-77
2021/06/18 04:30:56;;;;;;;48.58;43.38;;;;;19.50;100729.00;;;;10501387;28;20224;-78
2021/06/18 04:35:58;;;;;;;51.50;43.25;;;;;19.60;100718.00;;;;10489578;28;20220;-78
2021/06/18 04:40:59;;;;;;;50.92;43.83;;;;;19.70;100730.00;;;;10480117;28;20254;-77
2021/06/18 04:46:02;;;;;;;51.97;43.85;;;;;19.80;100734.00;;;;10502182;28;20193;-78
2021/06/18 04:51:05;;;;;;;46.03;41.08;;;;;19.90;100738.00;;;;10503662;28;20185;-78
2021/06/18 04:56:06;;;;;;;43.83;39.25;;;;;19.90;100747.00;;;;10485637;28;20641;-78
2021/06/18 05:01:08;;;;;;;42.58;38.13;;;;;19.90;100742.00;;;;10486122;28;20205;-78
2021/06/18 05:06:11;;;;;;;40.63;36.55;;;;;20.00;100755.00;;;;10467816;28;20260;-78
2021/06/18 05:11:13;;;;;;;42.53;36.95;;;;;20.00;100748.00;;;;10498838;28;20185;-78
2021/06/18 05:16:15;;;;;;;40.58;36.25;;;;;20.00;100752.00;;;;10478349;28;20200;-78
2021/06/18 05:21:17;;;;;;;38.42;34.25;;;;;20.10;100740.00;;;;10493710;28;20206;-78
2021/06/18 05:26:19;;;;;;;38.45;32.80;;;;;20.20;100748.00;;;;10511295;28;20219;-78
2021/06/18 05:31:21;;;;;;;33.30;30.10;;;;;20.20;100748.00;;;;10494245;28;20193;-79
2021/06/18 05:36:23;;;;;;;35.53;31.80;;;;;20.30;100745.00;;;;10489034;28;20231;-79
2021/06/18 05:41:26;;;;;;;32.13;28.88;;;;;20.30;100751.00;;;;10470263;28;20557;-78
2021/06/18 05:46:28;;;;;;;36.78;33.10;;;;;20.30;100748.00;;;;10475247;28;20554;-79
2021/06/18 05:51:30;;;;;;;35.10;31.45;;;;;20.40;100745.00;;;;10501561;28;20215;-79
2021/06/18 05:56:32;;;;;;;35.63;31.90;;;;;20.30;100754.00;;;;10494891;28;20197;-78
2021/06/18 06:01:33;;;;;;;34.75;31.35;;;;;20.20;100762.00;;;;10499758;28;20201;-78
2021/06/18 06:06:36;;;;;;;36.30;32.22;;;;;20.30;100753.00;;;;10493975;28;20196;-78
2021/06/18 06:11:38;;;;;;;35.45;31.77;;;;;20.40;100747.00;;;;10482292;28;20189;-78
2021/06/18 06:16:39;;;;;;;35.65;32.17;;;;;20.50;100747.00;;;;10495364;28;20190;-79
2021/06/18 06:21:43;;;;;;;35.15;31.23;;;;;20.70;100740.00;;;;10535170;28;20598;-78
2021/06/18 06:26:45;;;;;;;33.90;30.48;;;;;21.00;100751.00;;;;10503757;28;20272;-78
2021/06/18 06:31:47;;;;;;;30.80;27.63;;;;;21.30;100757.00;;;;10539664;28;20201;-78
2021/06/18 06:36:48;;;;;;;29.92;26.77;;;;;21.90;100749.00;;;;10470483;28;20212;-79
2021/06/18 06:41:50;;;;;;;26.20;23.50;;;;;22.30;100752.00;;;;10473625;28;20289;-79
2021/06/18 06:46:52;;;;;;;22.15;20.05;;;;;22.80;100778.00;;;;10504517;28;20185;-78
2021/06/18 06:51:54;;;;;;;22.38;18.67;;;;;23.00;100779.00;;;;10482407;28;20275;-76
2021/06/18 06:56:56;;;;;;;19.10;17.23;;;;;23.10;100758.00;;;;10481161;28;20197;-77
2021/06/18 07:01:59;;;;;;;19.17;17.17;;;;;23.00;100780.00;;;;10473745;28;20213;-76
2021/06/18 07:07:02;;;;;;;16.98;15.27;;;;;23.30;100799.00;;;;10480910;28;20284;-77
2021/06/18 07:12:06;;;;;;;16.02;14.35;;;;;24.10;100796.00;;;;10495482;28;20645;-78
2021/06/18 07:17:08;;;;;;;12.63;11.40;;;;;24.50;100794.00;;;;10527438;28;20196;-77
2021/06/18 07:22:10;;;;;;;12.05;9.32;;;;;24.60;100786.00;;;;10457680;28;20685;-77
2021/06/18 07:27:13;;;;;;;10.90;9.77;;;;;24.70;100782.00;;;;10469247;28;20209;-77
2021/06/18 07:32:16;;;;;;;10.40;9.43;;;;;24.50;100751.00;;;;10501891;28;20212;-77
2021/06/18 07:37:18;;;;;;;11.90;10.77;;;;;24.30;100746.00;;;;10497738;28;20211;-77
2021/06/18 07:42:22;;;;;;;12.27;10.57;;;;;25.10;100742.00;;;;10485596;28;20251;-77
2021/06/18 07:47:24;;;;;;;11.13;10.07;;;;;26.30;100737.00;;;;10482883;28;20200;-77
2021/06/18 07:52:26;;;;;;;12.10;10.45;;;;;26.30;100745.00;;;;10492306;28;20181;-77
2021/06/18 07:57:28;;;;;;;11.57;10.57;;;;;26.10;100739.00;;;;10495380;28;20202;-77
2021/06/18 08:02:30;;;;;;;13.35;12.18;;;;;25.90;100736.00;;;;10502330;28;20564;-77
2021/06/18 08:07:32;;;;;;;13.10;11.90;;;;;26.60;100727.00;;;;10523029;28;20199;-77
2021/06/18 08:12:34;;;;;;;13.55;12.13;;;;;26.20;100713.00;;;;10516638;28;20543;-77
2021/06/18 08:17:36;;;;;;;14.38;12.98;;;;;26.50;100730.00;;;;10493011;28;20253;-77
2021/06/18 08:22:42;;;;;;;15.73;14.05;;;;;26.50;100730.00;;;;10503958;28;20236;-77
2021/06/18 08:27:45;;;;;;;16.20;13.65;;;;;26.80;100718.00;;;;10480690;28;20247;-77
2021/06/18 08:32:46;;;;;;;14.98;12.60;;;;;28.50;100717.00;;;;10465184;28;20216;-77
2021/06/18 08:37:49;;;;;;;13.25;11.90;;;;;29.40;100707.00;;;;10523946;28;20672;-78
2021/06/18 08:42:51;;;;;;;14.77;13.40;;;;;28.90;100696.00;;;;10501303;28;20242;-77
2021/06/18 08:47:53;;;;;;;15.25;13.68;;;;;28.80;100694.00;;;;10543051;28;20193;-76
2021/06/18 08:53:01;;;;;;;15.35;13.73;;;;;28.70;100686.00;;;;10478488;28;20758;-76
2021/06/18 08:58:03;;;;;;;16.95;15.45;;;;;29.30;100668.00;;;;10506646;28;20185;-78
2021/06/18 09:03:37;;;;;;;16.60;15.05;;;;;29.30;100657.00;;;;10516017;28;20223;-78
2021/06/18 09:08:39;;;;;;;15.45;13.88;;;;;30.00;100655.00;;;;10531897;28;20189;-78
2021/06/18 09:13:41;;;;;;;14.38;12.98;;;;;30.60;100661.00;;;;10476534;28;20190;-77
2021/06/18 09:18:44;;;;;;;17.38;13.32;;;;;31.10;100654.00;;;;10504299;28;20236;-76
2021/06/18 09:23:49;;;;;;;12.88;11.63;;;;;31.80;100656.00;;;;10454582;28;20675;-78
2021/06/18 09:29:12;;;;;;;13.73;12.35;;;;;32.10;100656.00;;;;10525046;28;20230;-78
2021/06/18 09:34:29;;;;;;;15.05;13.63;;;;;32.20;100659.00;;;;10480232;28;20220;-78
2021/06/18 09:39:31;;;;;;;11.95;10.85;;;;;32.20;100642.00;;;;10496967;28;20204;-78
2021/06/18 09:44:33;;;;;;;12.57;10.38;;;;;32.20;100624.00;;;;10523171;28;20626;-78
2021/06/18 09:49:40;;;;;;;10.85;9.70;;;;;32.10;100618.00;;;;10492918;28;20198;-78
2021/06/18 09:54:46;;;;;;;14.27;9.27;;;;;32.50;100627.00;;;;10520314;28;20181;-78
2021/06/18 10:00:05;;;;;;;14.10;9.55;;;;;32.40;100631.00;;;;10516811;28;20268;-79
2021/06/18 10:05:13;;;;;;;10.43;7.88;;;;;32.80;100616.00;;;;10538488;28;20280;-79
2021/06/18 10:10:16;;;;;;;11.07;8.20;;;;;32.70;100615.00;;;;10521385;28;20203;-78
2021/06/18 10:15:21;;;;;;;11.15;7.00;;;;;33.30;100610.00;;;;10516324;28;20196;-78
2021/06/18 10:20:25;;;;;;;8.63;6.30;;;;;33.80;100603.00;;;;10518806;28;20208;-78
2021/06/18 10:25:44;;;;;;;11.43;6.32;;;;;34.40;100600.00;;;;10506608;28;20647;-78
2021/06/18 10:30:53;;;;;;;9.23;6.18;;;;;34.80;100594.00;;;;10503580;28;20198;-78
2021/06/18 10:36:20;;;;;;;9.32;6.22;;;;;34.60;100600.00;;;;10543312;27;20268;-78
2021/06/18 10:41:26;;;;;;;10.35;5.38;;;;;34.80;100593.00;;;;10569564;28;20226;-76
2021/06/18 10:46:30;;;;;;;10.07;6.20;;;;;34.90;100580.00;;;;10505475;28;20283;-78
2021/06/18 10:51:56;;;;;;;9.60;6.10;;;;;35.10;100571.00;;;;10485356;28;20197;-76
2021/06/18 10:57:01;;;;;;;8.50;5.57;;;;;35.90;100561.00;;;;10504591;28;20199;-77
2021/06/18 11:02:26;;;;;;;8.35;4.63;;;;;36.70;100559.00;;;;10495025;28;20263;-77
2021/06/18 11:07:40;;;;;;;6.10;4.35;;;;;36.90;100564.00;;;;10526211;28;20704;-77
2021/06/18 11:12:48;;;;;;;9.00;4.13;;;;;36.60;100566.00;;;;10515847;28;20184;-78
2021/06/18 11:18:13;;;;;;;8.02;3.72;;;;;36.90;100558.00;;;;10498289;28;20189;-77
2021/06/18 11:23:18;;;;;;;6.45;3.70;;;;;37.40;100557.00;;;;10524797;28;20220;-77
2021/06/18 11:28:20;;;;;;;6.95;3.45;;;;;37.30;100554.00;;;;10516679;28;20264;-77
2021/06/18 11:38:44;;;;;;;3.90;3.40;;;;;37.20;100546.00;;;;10542740;28;20206;-77
2021/06/18 11:43:49;;;;;;;9.68;3.78;;;;;37.40;100541.00;;;;10522437;28;20236;-77
2021/06/18 11:48:54;;;;;;;6.55;3.47;;;;;37.60;100536.00;;;;10503880;28;20207;-78
2021/06/18 11:53:57;;;;;;;7.60;3.58;;;;;37.90;100530.00;;;;10513653;28;20831;-78
2021/06/18 11:58:59;;;;;;;4.63;3.45;;;;;38.30;100529.00;;;;10546392;28;20198;-78
2021/06/18 12:04:03;;;;;;;4.68;3.50;;;;;37.90;100521.00;;;;10536553;28;20205;-77
2021/06/18 12:09:16;;;;;;;6.45;3.50;;;;;38.10;100524.00;;;;10485575;28;20551;-78
2021/06/18 12:14:18;;;;;;;4.32;3.47;;;;;38.80;100519.00;;;;10469139;28;20185;-77
2021/06/18 12:19:43;;;;;;;7.60;3.20;;;;;38.80;100517.00;;;;10459641;28;20205;-78
2021/06/18 12:24:59;;;;;;;5.78;3.33;;;;;38.60;100512.00;;;;10486405;28;20220;-78
2021/06/18 12:30:06;;;;;;;5.60;3.50;;;;;38.30;100504.00;;;;10515937;28;20184;-77
2021/06/18 12:35:10;;;;;;;6.38;3.78;;;;;38.70;100500.00;;;;10475347;28;20808;-77
2021/06/18 12:40:15;;;;;;;7.00;3.65;;;;;37.30;100501.00;;;;10505222;28;20235;-77
2021/06/18 12:45:32;;;;;;;12.00;3.72;;;;;36.50;100497.00;;;;10466125;28;20728;-77
2021/06/18 12:50:56;;;;;;;8.13;3.38;;;;;36.20;100486.00;;;;10496821;28;20239;-77
2021/06/18 12:56:41;;;;;;;11.65;3.72;;;;;36.80;100483.00;;;;10494418;28;20219;-77
2021/06/18 13:01:44;;;;;;;4.45;3.42;;;;;36.50;100482.00;;;;10437604;28;20605;-78
2021/06/18 13:06:49;;;;;;;5.78;3.20;;;;;37.30;100462.00;;;;10505980;28;20217;-78
2021/06/18 13:11:52;;;;;;;5.50;3.28;;;;;37.30;100466.00;;;;10494137;28;20192;-78
2021/06/18 13:16:57;;;;;;;4.43;3.50;;;;;36.90;100467.00;;;;10492831;28;20215;-78
2021/06/18 13:21:59;;;;;;;4.22;3.30;;;;;35.70;100460.00;;;;10485576;28;20205;-77
2021/06/18 13:27:10;;;;;;;5.13;3.40;;;;;36.70;100452.00;;;;10483070;28;20268;-77
2021/06/18 13:32:13;;;;;;;7.85;3.80;;;;;35.50;100466.00;;;;10511356;28;20217;-77
2021/06/18 13:37:16;;;;;;;6.68;3.45;;;;;37.20;100443.00;;;;10510740;28;20268;-77
2021/06/18 13:42:19;;;;;;;7.13;3.70;;;;;36.30;100445.00;;;;10495582;28;20926;-77
2021/06/18 13:47:21;;;;;;;5.68;3.80;;;;;36.70;100434.00;;;;10480109;28;20276;-76
2021/06/18 13:52:23;;;;;;;10.82;3.78;;;;;39.50;100433.00;;;;10495788;28;20193;-77
2021/06/18 13:57:27;;;;;;;6.90;3.78;;;;;38.40;100433.00;;;;10500219;28;20189;-77
2021/06/18 14:02:30;;;;;;;10.55;3.67;;;;;40.90;100430.00;;;;10500000;28;20201;-77
2021/06/18 14:07:33;;;;;;;12.05;4.22;;;;;36.90;100436.00;;;;10483557;28;20178;-76
2021/06/18 14:12:36;;;;;;;12.77;4.47;;;;;36.50;100421.00;;;;10486292;28;20177;-77
2021/06/18 14:17:38;;;;;;;10.77;4.75;;;;;37.60;100408.00;;;;10504598;28;20193;-77
2021/06/18 14:22:41;;;;;;;11.40;4.28;;;;;42.10;100397.00;;;;10503293;28;20698;-77
2021/06/18 14:27:43;;;;;;;15.15;4.10;;;;;42.70;100408.00;;;;10524564;28;20494;-77
2021/06/18 14:32:45;;;;;;;10.18;4.13;;;;;39.50;100409.00;;;;10511464;28;20209;-77
2021/06/18 14:37:47;;;;;;;10.55;3.95;;;;;42.90;100410.00;;;;10511668;28;20240;-78
2021/06/18 14:42:49;;;;;;;14.18;4.28;;;;;43.50;100413.00;;;;10502179;28;20212;-78
2021/06/18 14:47:51;;;;;;;12.80;4.43;;;;;42.00;100399.00;;;;10525484;28;20655;-78
2021/06/18 14:52:54;;;;;;;12.27;4.45;;;;;39.40;100389.00;;;;10509740;28;20232;-78
2021/06/18 14:57:56;;;;;;;10.93;5.05;;;;;36.90;100409.00;;;;10482439;28;20201;-77
2021/06/18 15:03:01;;;;;;;17.80;5.00;;;;;35.00;100415.00;;;;10505406;28;20221;-77
2021/06/18 15:08:03;;;;;;;12.52;4.78;;;;;33.40;100407.00;;;;10525616;28;20200;-77
2021/06/18 15:13:05;;;;;;;14.75;5.18;;;;;32.70;100402.00;;;;10481336;28;20186;-78
2021/06/18 15:18:07;;;;;;;9.85;4.35;;;;;37.20;100377.00;;;;10501221;28;20193;-78
2021/06/18 15:23:10;;;;;;;12.88;4.70;;;;;39.80;100375.00;;;;10486966;28;20214;-79
2021/06/18 15:28:12;;;;;;;12.52;4.65;;;;;43.10;100389.00;;;;10506667;28;20261;-78
2021/06/18 15:33:14;;;;;;;9.38;4.45;;;;;39.30;100395.00;;;;10496474;28;20213;-78
2021/06/18 15:38:16;;;;;;;7.25;4.15;;;;;40.40;100381.00;;;;10478912;28;20201;-78
2021/06/18 15:43:18;;;;;;;8.70;4.25;;;;;43.10;100379.00;;;;10507573;28;20632;-78
2021/06/18 15:48:20;;;;;;;14.40;3.90;;;;;42.40;100386.00;;;;10480546;28;20194;-78
2021/06/18 15:53:22;;;;;;;7.35;3.47;;;;;40.20;100412.00;;;;10503949;28;20198;-78
2021/06/18 15:58:25;;;;;;;10.40;4.38;;;;;35.40;100406.00;;;;10498802;28;20847;-77
2021/06/18 16:03:27;;;;;;;7.78;3.55;;;;;34.10;100410.00;;;;10496196;28;20240;-77
2021/06/18 16:08:29;;;;;;;7.80;4.45;;;;;34.30;100398.00;;;;10533489;28;20224;-77
2021/06/18 16:13:31;;;;;;;5.90;4.03;;;;;34.10;100407.00;;;;10535690;28;20197;-77
2021/06/18 16:18:33;;;;;;;10.00;4.15;;;;;33.20;100396.00;;;;10503761;28;20258;-78
2021/06/18 16:23:35;;;;;;;9.43;4.03;;;;;33.30;100400.00;;;;10522233;28;20262;-76
2021/06/18 16:28:38;;;;;;;8.25;4.15;;;;;33.80;100395.00;;;;10473403;28;20197;-78
2021/06/18 16:33:40;;;;;;;7.13;4.40;;;;;32.70;100387.00;;;;10493754;28;20205;-78
2021/06/18 16:38:42;;;;;;;8.52;3.88;;;;;31.80;100401.00;;;;10476613;28;20223;-78
2021/06/18 16:43:44;;;;;;;10.20;4.57;;;;;31.60;100399.00;;;;10512479;28;20828;-78
2021/06/18 16:48:46;;;;;;;6.70;4.28;;;;;31.80;100403.00;;;;10530298;28;20243;-78
2021/06/18 16:53:48;;;;;;;4.63;4.15;;;;;32.40;100408.00;;;;10513748;28;20191;-78
2021/06/18 16:58:51;;;;;;;6.68;4.00;;;;;31.80;100425.00;;;;10512521;28;20682;-78
2021/06/18 17:03:53;;;;;;;7.18;4.07;;;;;31.60;100425.00;;;;10511876;28;20220;-78
2021/06/18 17:08:55;;;;;;;7.85;3.60;;;;;31.40;100436.00;;;;10494476;28;20703;-79
2021/06/18 17:14:15;;;;;;;6.85;3.60;;;;;31.20;100445.00;;;;10478296;28;20181;-78
2021/06/18 17:19:17;;;;;;;7.80;3.60;;;;;31.30;100447.00;;;;10510734;28;20197;-78
2021/06/18 17:24:19;;;;;;;3.92;2.92;;;;;31.60;100454.00;;;;10483271;28;20727;-78
2021/06/18 17:29:21;;;;;;;5.70;2.75;;;;;31.90;100457.00;;;;10466762;28;20201;-78
2021/06/18 17:34:23;;;;;;;9.40;2.88;;;;;31.50;100472.00;;;;10491635;28;20275;-78
2021/06/18 17:39:24;;;;;;;6.63;2.85;;;;;31.00;100485.00;;;;10490331;28;20220;-78
2021/06/18 17:44:26;;;;;;;3.75;2.20;;;;;30.80;100483.00;;;;10493802;28;20225;-77
2021/06/18 17:49:34;;;;;;;3.90;2.15;;;;;30.40;100491.00;;;;10516460;28;20240;-78
2021/06/18 17:54:36;;;;;;;2.28;2.03;;;;;29.90;100488.00;;;;10475555;28;20566;-77
2021/06/18 17:59:40;;;;;;;5.13;2.20;;;;;29.50;100495.00;;;;10526254;28;20193;-78
2021/06/18 18:04:42;;;;;;;5.18;2.10;;;;;29.10;100505.00;;;;10542733;28;20213;-78
2021/06/18 18:09:43;;;;;;;5.32;2.15;;;;;28.80;100524.00;;;;10542477;28;20200;-78
2021/06/18 18:14:45;;;;;;;6.15;2.08;;;;;28.50;100529.00;;;;10511455;28;20812;-78
2021/06/18 18:19:47;;;;;;;4.45;1.77;;;;;28.20;100535.00;;;;10516700;28;20212;-78
2021/06/18 18:24:49;;;;;;;6.57;1.67;;;;;28.00;100543.00;;;;10471394;28;20252;-78
2021/06/18 18:29:51;;;;;;;2.95;1.65;;;;;27.80;100544.00;;;;10563913;28;20192;-77
2021/06/18 18:34:53;;;;;;;5.47;1.85;;;;;27.60;100556.00;;;;10544907;28;20212;-77
2021/06/18 18:39:55;;;;;;;7.43;1.75;;;;;27.40;100554.00;;;;10509389;28;20224;-77
2021/06/18 18:44:57;;;;;;;2.83;1.20;;;;;27.30;100564.00;;;;10459093;28;20228;-78
2021/06/18 18:49:59;;;;;;;1.88;1.42;;;;;27.10;100568.00;;;;10492366;28;20204;-77
2021/06/18 18:55:03;;;;;;;4.72;1.20;;;;;27.00;100569.00;;;;10535028;28;20248;-77
2021/06/18 19:00:07;;;;;;;4.85;1.45;;;;;26.90;100576.00;;;;10539848;28;20520;-77
2021/06/18 19:05:11;;;;;;;2.30;1.17;;;;;26.80;100576.00;;;;10475023;28;20220;-78
2021/06/18 19:10:14;;;;;;;1.80;1.02;;;;;26.90;100567.00;;;;10492964;28;20220;-78
2021/06/18 19:15:17;;;;;;;3.78;1.20;;;;;27.10;100579.00;;;;10474378;28;20196;-77
2021/06/18 19:20:19;;;;;;;5.85;1.05;;;;;28.70;100571.00;;;;10459649;28;20308;-78
2021/06/18 19:25:22;;;;;;;3.15;1.10;;;;;29.40;100580.00;;;;10491592;28;20220;-78
2021/06/18 19:30:25;;;;;;;4.10;0.90;;;;;27.90;100593.00;;;;10516872;28;20263;-77
2021/06/18 19:35:28;;;;;;;1.88;1.10;;;;;26.90;100609.00;;;;10513436;28;20235;-77
2021/06/18 19:40:30;;;;;;;2.00;1.02;;;;;26.30;100610.00;;;;10510632;28;107208;-78
2021/06/18 19:45:32;;;;;;;2.08;1.00;;;;;25.80;100623.00;;;;10529038;28;20216;-77
2021/06/18 19:50:34;;;;;;;1.85;0.85;;;;;25.50;100622.00;;;;10495956;28;20196;-77
2021/06/18 19:55:37;;;;;;;1.05;0.90;;;;;25.20;100628.00;;;;10511548;28;20193;-77
2021/06/18 20:00:39;;;;;;;2.90;1.30;;;;;25.00;100640.00;;;;10506902;28;20197;-77
2021/06/18 20:05:41;;;;;;;2.80;0.88;;;;;24.90;100644.00;;;;10452037;28;20224;-77
2021/06/18 20:10:43;;;;;;;3.63;1.02;;;;;24.70;100639.00;;;;10469119;28;20253;-77
2021/06/18 20:15:45;;;;;;;1.02;0.98;;;;;24.60;100649.00;;;;10452497;28;20342;-77
2021/06/18 20:20:48;;;;;;;3.17;1.15;;;;;24.40;100656.00;;;;10485750;28;20203;-77
2021/06/18 20:25:50;;;;;;;1.75;0.90;;;;;24.30;100654.00;;;;10487932;28;20311;-77
2021/06/18 20:30:52;;;;;;;2.40;1.20;;;;;24.20;100658.00;;;;10527756;28;20189;-77
2021/06/18 20:35:55;;;;;;;2.13;1.02;;;;;24.10;100669.00;;;;10527517;28;20231;-78
2021/06/18 20:40:58;;;;;;;1.13;0.88;;;;;24.10;100674.00;;;;10510250;28;20193;-78
2021/06/18 20:46:01;;;;;;;1.50;0.80;;;;;24.00;100684.00;;;;10510515;28;20880;-77
2021/06/18 20:51:04;;;;;;;1.10;1.00;;;;;23.90;100688.00;;;;10525690;28;20280;-78
2021/06/18 20:56:06;;;;;;;0.98;0.90;;;;;23.80;100684.00;;;;10497097;28;20197;-77
2021/06/18 21:01:09;;;;;;;1.92;0.90;;;;;23.70;100696.00;;;;10495947;28;20659;-77
2021/06/18 21:06:11;;;;;;;1.20;0.88;;;;;23.60;100686.00;;;;10486900;28;20216;-77
2021/06/18 21:11:13;;;;;;;0.93;0.93;;;;;23.50;100688.00;;;;10456126;28;20556;-78
2021/06/18 21:16:15;;;;;;;1.58;1.00;;;;;23.40;100690.00;;;;10491474;28;20222;-79
2021/06/18 21:21:17;;;;;;;1.55;1.45;;;;;23.40;100695.00;;;;10488099;28;20886;-77
2021/06/18 21:26:19;;;;;;;0.95;0.93;;;;;23.30;100699.00;;;;10497844;28;20213;-76
2021/06/18 21:31:21;;;;;;;3.33;1.25;;;;;23.20;100708.00;;;;10503995;28;20268;-77
2021/06/18 21:36:24;;;;;;;1.63;1.10;;;;;23.20;100710.00;;;;10494530;28;20269;-77
2021/06/18 21:41:26;;;;;;;2.33;1.15;;;;;23.10;100708.00;;;;10474249;28;20201;-77
2021/06/18 21:46:28;;;;;;;1.80;1.17;;;;;23.10;100721.00;;;;10484436;28;20222;-77
2021/06/18 21:51:32;;;;;;;2.20;1.52;;;;;23.00;100727.00;;;;10500160;28;20659;-77
2021/06/18 21:56:34;;;;;;;1.27;1.15;;;;;22.90;100708.00;;;;10504886;28;20184;-77
2021/06/18 22:01:37;;;;;;;1.70;1.30;;;;;22.80;100719.00;;;;10480343;28;20288;-77
2021/06/18 22:06:39;;;;;;;1.88;1.20;;;;;22.70;100730.00;;;;10488210;28;20189;-78
2021/06/18 22:11:41;;;;;;;2.00;1.40;;;;;22.70;100723.00;;;;10491087;28;20876;-77
2021/06/18 22:16:43;;;;;;;1.63;1.33;;;;;22.60;100731.00;;;;10487100;28;20204;-77
2021/06/18 22:21:45;;;;;;;2.63;1.38;;;;;22.50;100738.00;;;;10521765;28;20560;-78
2021/06/18 22:26:47;;;;;;;4.82;1.60;;;;;22.50;100748.00;;;;10471454;28;20189;-77
2021/06/18 22:31:50;;;;;;;2.17;1.50;;;;;22.30;100748.00;;;;10500291;28;20684;-77
2021/06/18 22:36:54;;;;;;;4.25;1.38;;;;;22.30;100751.00;;;;10495008;28;20208;-77
2021/06/18 22:41:56;;;;;;;1.48;1.20;;;;;22.20;100763.00;;;;10535816;28;20197;-77
2021/06/18 22:46:58;;;;;;;3.60;1.15;;;;;22.10;100773.00;;;;10491232;28;20277;-78
2021/06/18 22:52:02;;;;;;;1.38;1.25;;;;;22.10;100786.00;;;;10510085;28;20739;-77
2021/06/18 22:57:04;;;;;;;1.33;1.23;;;;;22.00;100791.00;;;;10480583;28;20650;-77
2021/06/18 23:02:06;;;;;;;1.58;1.45;;;;;21.90;100797.00;;;;10510033;28;20204;-77
2021/06/18 23:07:09;;;;;;;1.88;1.67;;;;;21.90;100799.00;;;;10508797;28;20204;-78
2021/06/18 23:12:11;;;;;;;1.95;1.50;;;;;21.80;100811.00;;;;10476621;28;20199;-77
2021/06/18 23:17:13;;;;;;;3.33;1.52;;;;;21.70;100812.00;;;;10476824;28;20241;-77
2021/06/18 23:22:15;;;;;;;1.90;1.48;;;;;21.70;100804.00;;;;10494903;28;20212;-77
2021/06/18 23:27:17;;;;;;;3.30;1.40;;;;;21.70;100803.00;;;;10494844;28;20190;-77
2021/06/18 23:32:20;;;;;;;2.20;1.70;;;;;21.60;100795.00;;;;10455886;28;20744;-77
2021/06/18 23:37:22;;;;;;;3.42;1.90;;;;;21.50;100797.00;;;;10497892;28;20212;-77
2021/06/18 23:42:24;;;;;;;1.77;1.48;;;;;21.50;100806.00;;;;10470878;28;20213;-77
2021/06/18 23:47:26;;;;;;;1.70;1.60;;;;;21.50;100809.00;;;;10492126;28;20601;-77
2021/06/18 23:52:28;;;;;;;1.70;1.60;;;;;21.50;100814.00;;;;10501110;28;20189;-77
2021/06/18 23:57:29;;;;;;;1.60;1.42;;;;;21.60;100820.00;;;;10469591;28;20562;-78
